sensor_id;sensor_type;location;lat;lon;timestamp;P1;durP1;ratioP1;P2;durP2;ratioP2
34571;SDS011;20808;48.974;8.452;2023-02-26T00:00:11;3.60;;;2.50;;
34571;SDS011;20808;48.974;8.452;2023-02-26T00:00:29;4.20;;;2.75;;
34571;SDS011;20808;48.974;8.452;2023-02-26T00:00:45;5.00;;;2.80;;
34571;SDS011;20808;48.974;8.452;2023-02-26T00:01:01;5.50;;;3.00;;
34571;SDS011;20808;48.974;8.452;2023-02-26T00:01:19;5.88;;;2.90;;
34571;SDS011;20808;48.974;8.452;2023-02-26T00:01:36;4.70;;;2.80;;
34571;SDS011;20808;48.974;8.452;2023-02-26T00:01:52;5.05;;;2.80;;
34571;SDS011;20808;48.974;8.452;2023-02-26T00:02:17;4.82;;;2.60;;
34571;SDS011;20808;48.974;8.452;2023-02-26T00:02:33;4.88;;;2.67;;
34571;SDS011;20808;48.974;8.452;2023-02-26T00:02:50;3.85;;;2.50;;
34571;SDS011;20808;48.974;8.452;2023-02-26T00:03:06;4.10;;;2.50;;
34571;SDS011;20808;48.974;8.452;2023-02-26T00:03:22;4.07;;;2.40;;
34571;SDS011;20808;48.974;8.452;2023-02-26T00:03:38;5.70;;;2.58;;
34571;SDS011;20808;48.974;8.452;2023-02-26T00:03:55;5.50;;;2.60;;
34571;SDS011;20808;48.974;8.452;2023-02-26T00:04:12;5.30;;;2.60;;
34571;SDS011;20808;48.974;8.452;2023-02-26T00:04:28;3.88;;;2.50;;
34571;SDS011;20808;48.974;8.452;2023-02-26T00:04:44;4.30;;;2.40;;
34571;SDS011;20808;48.974;8.452;2023-02-26T00:05:00;5.80;;;2.60;;
34571;SDS011;20808;48.974;8.452;2023-02-26T00:05:17;5.80;;;2.70;;
34571;SDS011;20808;48.974;8.452;2023-02-26T00:05:33;5.95;;;2.90;;
34571;SDS011;20808;48.974;8.452;2023-02-26T00:05:49;5.88;;;3.15;;
34571;SDS011;20808;48.974;8.452;2023-02-26T00:06:05;5.18;;;3.33;;
34571;SDS011;20808;48.974;8.452;2023-02-26T00:06:22;5.60;;;3.50;;
34571;SDS011;20808;48.974;8.452;2023-02-26T00:06:39;6.50;;;3.50;;
34571;SDS011;20808;48.974;8.452;2023-02-26T00:07:07;8.57;;;3.50;;
34571;SDS011;20808;48.974;8.452;2023-02-26T00:07:22;8.20;;;3.58;;
34571;SDS011;20808;48.974;8.452;2023-02-26T00:07:39;7.93;;;3.55;;
34571;SDS011;20808;48.974;8.452;2023-02-26T00:07:56;5.97;;;3.50;;
34571;SDS011;20808;48.974;8.452;2023-02-26T00:08:11;5.43;;;3.30;;
34571;SDS011;20808;48.974;8.452;2023-02-26T00:08:28;5.85;;;3.25;;
34571;SDS011;20808;48.974;8.452;2023-02-26T00:08:45;5.20;;;3.20;;
34571;SDS011;20808;48.974;8.452;2023-02-26T00:09:01;5.75;;;3.40;;
34571;SDS011;20808;48.974;8.452;2023-02-26T00:09:17;5.30;;;3.40;;
34571;SDS011;20808;48.974;8.452;2023-02-26T00:09:33;5.85;;;3.60;;
34571;SDS011;20808;48.974;8.452;2023-02-26T00:09:50;6.57;;;3.50;;
34571;SDS011;20808;48.974;8.452;2023-02-26T00:10:07;6.53;;;3.35;;
34571;SDS011;20808;48.974;8.452;2023-02-26T00:10:26;5.70;;;2.95;;
34571;SDS011;20808;48.974;8.452;2023-02-26T00:10:41;5.37;;;2.90;;
34571;SDS011;20808;48.974;8.452;2023-02-26T00:10:57;5.20;;;2.85;;
34571;SDS011;20808;48.974;8.452;2023-02-26T00:11:16;5.88;;;2.97;;
34571;SDS011;20808;48.974;8.452;2023-02-26T00:11:32;6.72;;;3.20;;
34571;SDS011;20808;48.974;8.452;2023-02-26T00:11:48;7.10;;;3.30;;
34571;SDS011;20808;48.974;8.452;2023-02-26T00:12:04;7.65;;;3.30;;
34571;SDS011;20808;48.974;8.452;2023-02-26T00:12:21;8.25;;;3.40;;
34571;SDS011;20808;48.974;8.452;2023-02-26T00:12:38;7.55;;;3.25;;
34571;SDS011;20808;48.974;8.452;2023-02-26T00:12:55;7.13;;;3.38;;
34571;SDS011;20808;48.974;8.452;2023-02-26T00:13:11;7.28;;;3.40;;
34571;SDS011;20808;48.974;8.452;2023-02-26T00:13:27;6.57;;;3.30;;
34571;SDS011;20808;48.974;8.452;2023-02-26T00:13:43;6.80;;;3.30;;
34571;SDS011;20808;48.974;8.452;2023-02-26T00:14:00;6.95;;;3.15;;
34571;SDS011;20808;48.974;8.452;2023-02-26T00:14:17;7.78;;;3.20;;
34571;SDS011;20808;48.974;8.452;2023-02-26T00:14:33;9.00;;;3.60;;
34571;SDS011;20808;48.974;8.452;2023-02-26T00:14:49;8.70;;;3.50;;
34571;SDS011;20808;48.974;8.452;2023-02-26T00:15:09;8.25;;;3.60;;
34571;SDS011;20808;48.974;8.452;2023-02-26T00:15:27;8.23;;;3.60;;
34571;SDS011;20808;48.974;8.452;2023-02-26T00:15:43;7.25;;;3.70;;
34571;SDS011;20808;48.974;8.452;2023-02-26T00:16:00;8.10;;;3.70;;
34571;SDS011;20808;48.974;8.452;2023-02-26T00:16:21;7.97;;;3.40;;
34571;SDS011;20808;48.974;8.452;2023-02-26T00:16:42;8.77;;;3.47;;
34571;SDS011;20808;48.974;8.452;2023-02-26T00:17:48;9.73;;;4.00;;
34571;SDS011;20808;48.974;8.452;2023-02-26T00:18:11;11.82;;;4.10;;
34571;SDS011;20808;48.974;8.452;2023-02-26T00:18:29;12.43;;;4.18;;
34571;SDS011;20808;48.974;8.452;2023-02-26T00:18:46;11.80;;;4.10;;
34571;SDS011;20808;48.974;8.452;2023-02-26T00:19:04;10.25;;;4.10;;
34571;SDS011;20808;48.974;8.452;2023-02-26T00:19:21;9.95;;;3.78;;
34571;SDS011;20808;48.974;8.452;2023-02-26T00:19:38;8.82;;;3.60;;
34571;SDS011;20808;48.974;8.452;2023-02-26T00:19:54;9.73;;;3.65;;
34571;SDS011;20808;48.974;8.452;2023-02-26T00:20:10;8.68;;;3.60;;
34571;SDS011;20808;48.974;8.452;2023-02-26T00:20:31;10.32;;;3.90;;
34571;SDS011;20808;48.974;8.452;2023-02-26T00:20:47;10.38;;;3.80;;
34571;SDS011;20808;48.974;8.452;2023-02-26T00:21:04;9.88;;;3.70;;
34571;SDS011;20808;48.974;8.452;2023-02-26T00:21:21;8.93;;;3.80;;
34571;SDS011;20808;48.974;8.452;2023-02-26T00:21:38;10.13;;;4.03;;
34571;SDS011;20808;48.974;8.452;2023-02-26T00:21:55;11.50;;;4.30;;
34571;SDS011;20808;48.974;8.452;2023-02-26T00:22:11;11.98;;;4.40;;
34571;SDS011;20808;48.974;8.452;2023-02-26T00:22:28;12.82;;;4.40;;
34571;SDS011;20808;48.974;8.452;2023-02-26T00:22:45;11.35;;;4.03;;
34571;SDS011;20808;48.974;8.452;2023-02-26T00:23:01;11.25;;;3.70;;
34571;SDS011;20808;48.974;8.452;2023-02-26T00:23:18;11.38;;;3.78;;
34571;SDS011;20808;48.974;8.452;2023-02-26T00:23:34;9.35;;;3.70;;
34571;SDS011;20808;48.974;8.452;2023-02-26T00:23:50;9.23;;;3.80;;
34571;SDS011;20808;48.974;8.452;2023-02-26T00:24:07;8.57;;;3.75;;
34571;SDS011;20808;48.974;8.452;2023-02-26T00:24:23;8.45;;;3.60;;
34571;SDS011;20808;48.974;8.452;2023-02-26T00:24:39;8.37;;;3.50;;
34571;SDS011;20808;48.974;8.452;2023-02-26T00:24:56;8.60;;;3.42;;
34571;SDS011;20808;48.974;8.452;2023-02-26T00:25:12;8.23;;;3.40;;
34571;SDS011;20808;48.974;8.452;2023-02-26T00:25:28;9.43;;;3.42;;
34571;SDS011;20808;48.974;8.452;2023-02-26T00:25:44;9.30;;;3.50;;
34571;SDS011;20808;48.974;8.452;2023-02-26T00:26:00;9.30;;;3.60;;
34571;SDS011;20808;48.974;8.452;2023-02-26T00:26:16;9.25;;;3.58;;
34571;SDS011;20808;48.974;8.452;2023-02-26T00:26:33;8.63;;;3.60;;
34571;SDS011;20808;48.974;8.452;2023-02-26T00:26:50;8.63;;;3.40;;
34571;SDS011;20808;48.974;8.452;2023-02-26T00:27:07;8.23;;;3.50;;
34571;SDS011;20808;48.974;8.452;2023-02-26T00:27:24;7.78;;;3.58;;
34571;SDS011;20808;48.974;8.452;2023-02-26T00:27:40;8.20;;;3.87;;
34571;SDS011;20808;48.974;8.452;2023-02-26T00:27:58;7.90;;;3.70;;
34571;SDS011;20808;48.974;8.452;2023-02-26T00:28:14;7.03;;;3.45;;
34571;SDS011;20808;48.974;8.452;2023-02-26T00:28:31;7.40;;;3.33;;
34571;SDS011;20808;48.974;8.452;2023-02-26T00:28:48;6.45;;;3.20;;
34571;SDS011;20808;48.974;8.452;2023-02-26T00:29:04;6.72;;;3.33;;
34571;SDS011;20808;48.974;8.452;2023-02-26T00:29:21;7.75;;;3.30;;
34571;SDS011;20808;48.974;8.452;2023-02-26T00:29:37;7.38;;;3.10;;
34571;SDS011;20808;48.974;8.452;2023-02-26T00:29:55;7.47;;;3.17;;
34571;SDS011;20808;48.974;8.452;2023-02-26T00:30:12;6.20;;;3.20;;
34571;SDS011;20808;48.974;8.452;2023-02-26T00:30:29;4.97;;;3.10;;
34571;SDS011;20808;48.974;8.452;2023-02-26T00:30:45;5.32;;;3.30;;
34571;SDS011;20808;48.974;8.452;2023-02-26T00:31:02;4.80;;;3.15;;
34571;SDS011;20808;48.974;8.452;2023-02-26T00:31:19;5.53;;;3.00;;
34571;SDS011;20808;48.974;8.452;2023-02-26T00:31:38;5.95;;;2.85;;
34571;SDS011;20808;48.974;8.452;2023-02-26T00:31:55;5.72;;;2.97;;
34571;SDS011;20808;48.974;8.452;2023-02-26T00:32:11;5.80;;;3.10;;
34571;SDS011;20808;48.974;8.452;2023-02-26T00:32:28;4.47;;;3.10;;
34571;SDS011;20808;48.974;8.452;2023-02-26T00:32:44;5.32;;;3.10;;
34571;SDS011;20808;48.974;8.452;2023-02-26T00:33:02;5.50;;;3.10;;
34571;SDS011;20808;48.974;8.452;2023-02-26T00:33:19;5.10;;;3.00;;
34571;SDS011;20808;48.974;8.452;2023-02-26T00:33:36;5.95;;;3.00;;
34571;SDS011;20808;48.974;8.452;2023-02-26T00:33:53;5.47;;;2.80;;
34571;SDS011;20808;48.974;8.452;2023-02-26T00:34:11;5.65;;;2.80;;
34571;SDS011;20808;48.974;8.452;2023-02-26T00:34:29;5.55;;;2.90;;
34571;SDS011;20808;48.974;8.452;2023-02-26T00:34:46;4.85;;;2.90;;
34571;SDS011;20808;48.974;8.452;2023-02-26T00:35:03;5.43;;;3.10;;
34571;SDS011;20808;48.974;8.452;2023-02-26T00:35:19;5.78;;;3.00;;
34571;SDS011;20808;48.974;8.452;2023-02-26T00:35:37;6.22;;;3.13;;
34571;SDS011;20808;48.974;8.452;2023-02-26T00:35:54;8.90;;;3.50;;
34571;SDS011;20808;48.974;8.452;2023-02-26T00:36:20;9.80;;;3.97;;
34571;SDS011;20808;48.974;8.452;2023-02-26T00:36:38;11.65;;;4.13;;
34571;SDS011;20808;48.974;8.452;2023-02-26T00:37:02;11.77;;;4.10;;
34571;SDS011;20808;48.974;8.452;2023-02-26T00:37:30;11.68;;;3.80;;
34571;SDS011;20808;48.974;8.452;2023-02-26T00:37:55;10.85;;;3.83;;
34571;SDS011;20808;48.974;8.452;2023-02-26T00:38:15;9.85;;;3.70;;
34571;SDS011;20808;48.974;8.452;2023-02-26T00:38:32;9.18;;;3.63;;
34571;SDS011;20808;48.974;8.452;2023-02-26T00:38:54;8.43;;;3.60;;
34571;SDS011;20808;48.974;8.452;2023-02-26T00:39:24;7.65;;;3.40;;
34571;SDS011;20808;48.974;8.452;2023-02-26T00:39:55;7.13;;;3.10;;
34571;SDS011;20808;48.974;8.452;2023-02-26T00:40:21;6.60;;;3.20;;
34571;SDS011;20808;48.974;8.452;2023-02-26T00:40:45;7.78;;;3.58;;
34571;SDS011;20808;48.974;8.452;2023-02-26T00:41:03;9.43;;;3.40;;
34571;SDS011;20808;48.974;8.452;2023-02-26T00:41:20;10.50;;;3.50;;
34571;SDS011;20808;48.974;8.452;2023-02-26T00:41:36;10.10;;;3.30;;
34571;SDS011;20808;48.974;8.452;2023-02-26T00:41:53;8.07;;;3.20;;
34571;SDS011;20808;48.974;8.452;2023-02-26T00:42:09;6.43;;;3.08;;
34571;SDS011;20808;48.974;8.452;2023-02-26T00:42:27;5.40;;;2.90;;
34571;SDS011;20808;48.974;8.452;2023-02-26T00:42:44;4.75;;;2.85;;
34571;SDS011;20808;48.974;8.452;2023-02-26T00:43:00;4.60;;;2.92;;
34571;SDS011;20808;48.974;8.452;2023-02-26T00:43:17;4.57;;;3.00;;
34571;SDS011;20808;48.974;8.452;2023-02-26T00:43:36;5.53;;;3.30;;
34571;SDS011;20808;48.974;8.452;2023-02-26T00:43:53;7.03;;;3.38;;
34571;SDS011;20808;48.974;8.452;2023-02-26T00:44:09;7.43;;;3.10;;
34571;SDS011;20808;48.974;8.452;2023-02-26T00:44:25;8.82;;;3.20;;
34571;SDS011;20808;48.974;8.452;2023-02-26T00:44:42;9.00;;;3.20;;
34571;SDS011;20808;48.974;8.452;2023-02-26T00:44:58;7.65;;;3.00;;
34571;SDS011;20808;48.974;8.452;2023-02-26T00:45:16;8.50;;;3.20;;
34571;SDS011;20808;48.974;8.452;2023-02-26T00:45:34;8.68;;;2.90;;
34571;SDS011;20808;48.974;8.452;2023-02-26T00:45:53;8.95;;;2.92;;
34571;SDS011;20808;48.974;8.452;2023-02-26T00:46:18;8.55;;;3.13;;
34571;SDS011;20808;48.974;8.452;2023-02-26T00:46:40;7.60;;;3.38;;
34571;SDS011;20808;48.974;8.452;2023-02-26T00:47:04;6.78;;;3.20;;
34571;SDS011;20808;48.974;8.452;2023-02-26T00:47:26;5.93;;;3.13;;
34571;SDS011;20808;48.974;8.452;2023-02-26T00:47:48;6.03;;;3.00;;
34571;SDS011;20808;48.974;8.452;2023-02-26T00:48:12;6.13;;;2.97;;
34571;SDS011;20808;48.974;8.452;2023-02-26T00:48:39;6.90;;;3.00;;
34571;SDS011;20808;48.974;8.452;2023-02-26T00:49:03;6.13;;;2.83;;
34571;SDS011;20808;48.974;8.452;2023-02-26T00:49:26;5.93;;;2.70;;
34571;SDS011;20808;48.974;8.452;2023-02-26T00:50:02;5.75;;;2.70;;
34571;SDS011;20808;48.974;8.452;2023-02-26T00:50:25;4.15;;;2.70;;
34571;SDS011;20808;48.974;8.452;2023-02-26T00:50:42;4.95;;;2.80;;
34571;SDS011;20808;48.974;8.452;2023-02-26T00:51:09;5.00;;;2.60;;
34571;SDS011;20808;48.974;8.452;2023-02-26T00:51:35;4.55;;;2.60;;
34571;SDS011;20808;48.974;8.452;2023-02-26T00:51:58;4.20;;;2.65;;
34571;SDS011;20808;48.974;8.452;2023-02-26T00:52:19;4.50;;;2.60;;
34571;SDS011;20808;48.974;8.452;2023-02-26T00:52:45;4.50;;;2.50;;
34571;SDS011;20808;48.974;8.452;2023-02-26T00:53:11;4.97;;;2.40;;
34571;SDS011;20808;48.974;8.452;2023-02-26T00:53:38;5.55;;;2.50;;
34571;SDS011;20808;48.974;8.452;2023-02-26T00:54:03;6.10;;;2.70;;
34571;SDS011;20808;48.974;8.452;2023-02-26T00:54:24;6.60;;;2.63;;
34571;SDS011;20808;48.974;8.452;2023-02-26T00:54:41;6.63;;;2.70;;
34571;SDS011;20808;48.974;8.452;2023-02-26T00:54:57;6.35;;;2.63;;
34571;SDS011;20808;48.974;8.452;2023-02-26T00:55:13;5.22;;;2.70;;
34571;SDS011;20808;48.974;8.452;2023-02-26T00:55:30;5.45;;;2.63;;
34571;SDS011;20808;48.974;8.452;2023-02-26T00:55:46;6.57;;;2.70;;
34571;SDS011;20808;48.974;8.452;2023-02-26T00:56:15;6.00;;;2.80;;
34571;SDS011;20808;48.974;8.452;2023-02-26T00:56:31;5.28;;;2.90;;
34571;SDS011;20808;48.974;8.452;2023-02-26T00:56:47;5.72;;;2.80;;
34571;SDS011;20808;48.974;8.452;2023-02-26T00:57:04;6.15;;;2.80;;
34571;SDS011;20808;48.974;8.452;2023-02-26T00:57:21;6.30;;;2.70;;
34571;SDS011;20808;48.974;8.452;2023-02-26T00:57:38;5.30;;;2.70;;
34571;SDS011;20808;48.974;8.452;2023-02-26T00:57:53;4.68;;;2.70;;
34571;SDS011;20808;48.974;8.452;2023-02-26T00:58:09;4.93;;;2.70;;
34571;SDS011;20808;48.974;8.452;2023-02-26T00:58:26;5.75;;;2.70;;
34571;SDS011;20808;48.974;8.452;2023-02-26T00:58:42;7.10;;;2.60;;
34571;SDS011;20808;48.974;8.452;2023-02-26T00:58:58;6.60;;;2.50;;
34571;SDS011;20808;48.974;8.452;2023-02-26T00:59:13;5.47;;;2.40;;
34571;SDS011;20808;48.974;8.452;2023-02-26T00:59:29;5.15;;;2.40;;
34571;SDS011;20808;48.974;8.452;2023-02-26T00:59:45;4.73;;;2.60;;
34571;SDS011;20808;48.974;8.452;2023-02-26T01:00:02;5.10;;;2.70;;
34571;SDS011;20808;48.974;8.452;2023-02-26T01:00:21;5.43;;;2.85;;
34571;SDS011;20808;48.974;8.452;2023-02-26T01:00:37;4.70;;;2.70;;
34571;SDS011;20808;48.974;8.452;2023-02-26T01:00:53;5.00;;;2.70;;
34571;SDS011;20808;48.974;8.452;2023-02-26T01:01:09;4.65;;;2.78;;
34571;SDS011;20808;48.974;8.452;2023-02-26T01:01:24;5.35;;;2.90;;
34571;SDS011;20808;48.974;8.452;2023-02-26T01:01:41;5.50;;;3.10;;
34571;SDS011;20808;48.974;8.452;2023-02-26T01:01:58;5.53;;;3.13;;
34571;SDS011;20808;48.974;8.452;2023-02-26T01:02:13;5.53;;;3.08;;
34571;SDS011;20808;48.974;8.452;2023-02-26T01:02:29;5.40;;;2.95;;
34571;SDS011;20808;48.974;8.452;2023-02-26T01:02:46;6.00;;;2.88;;
34571;SDS011;20808;48.974;8.452;2023-02-26T01:03:03;5.57;;;2.70;;
34571;SDS011;20808;48.974;8.452;2023-02-26T01:03:20;5.70;;;2.72;;
34571;SDS011;20808;48.974;8.452;2023-02-26T01:03:36;5.80;;;2.80;;
34571;SDS011;20808;48.974;8.452;2023-02-26T01:03:53;5.88;;;3.00;;
34571;SDS011;20808;48.974;8.452;2023-02-26T01:04:10;5.97;;;2.92;;
34571;SDS011;20808;48.974;8.452;2023-02-26T01:04:27;6.57;;;3.00;;
34571;SDS011;20808;48.974;8.452;2023-02-26T01:04:44;6.88;;;3.00;;
34571;SDS011;20808;48.974;8.452;2023-02-26T01:05:02;7.15;;;3.10;;
34571;SDS011;20808;48.974;8.452;2023-02-26T01:05:19;5.75;;;3.05;;
34571;SDS011;20808;48.974;8.452;2023-02-26T01:05:36;4.90;;;2.80;;
34571;SDS011;20808;48.974;8.452;2023-02-26T01:05:52;4.10;;;2.70;;
34571;SDS011;20808;48.974;8.452;2023-02-26T01:06:09;3.85;;;2.50;;
34571;SDS011;20808;48.974;8.452;2023-02-26T01:06:29;5.32;;;2.63;;
34571;SDS011;20808;48.974;8.452;2023-02-26T01:06:48;6.07;;;2.60;;
34571;SDS011;20808;48.974;8.452;2023-02-26T01:07:05;7.70;;;2.88;;
34571;SDS011;20808;48.974;8.452;2023-02-26T01:07:24;6.00;;;2.60;;
34571;SDS011;20808;48.974;8.452;2023-02-26T01:07:43;5.25;;;2.72;;
34571;SDS011;20808;48.974;8.452;2023-02-26T01:08:07;4.80;;;2.72;;
34571;SDS011;20808;48.974;8.452;2023-02-26T01:08:30;6.40;;;3.10;;
34571;SDS011;20808;48.974;8.452;2023-02-26T01:08:50;5.63;;;3.00;;
34571;SDS011;20808;48.974;8.452;2023-02-26T01:09:16;4.38;;;2.90;;
34571;SDS011;20808;48.974;8.452;2023-02-26T01:09:38;5.60;;;2.90;;
34571;SDS011;20808;48.974;8.452;2023-02-26T01:09:54;6.07;;;3.00;;
34571;SDS011;20808;48.974;8.452;2023-02-26T01:10:11;6.68;;;2.97;;
34571;SDS011;20808;48.974;8.452;2023-02-26T01:10:28;5.03;;;3.00;;
34571;SDS011;20808;48.974;8.452;2023-02-26T01:10:44;5.47;;;3.10;;
34571;SDS011;20808;48.974;8.452;2023-02-26T01:11:00;5.32;;;3.00;;
34571;SDS011;20808;48.974;8.452;2023-02-26T01:11:18;4.65;;;3.00;;
34571;SDS011;20808;48.974;8.452;2023-02-26T01:11:34;4.50;;;2.80;;
34571;SDS011;20808;48.974;8.452;2023-02-26T01:11:52;4.68;;;2.80;;
34571;SDS011;20808;48.974;8.452;2023-02-26T01:12:09;4.60;;;2.80;;
34571;SDS011;20808;48.974;8.452;2023-02-26T01:12:27;4.22;;;2.90;;
34571;SDS011;20808;48.974;8.452;2023-02-26T01:12:43;4.85;;;2.92;;
34571;SDS011;20808;48.974;8.452;2023-02-26T01:13:00;6.20;;;3.00;;
34571;SDS011;20808;48.974;8.452;2023-02-26T01:13:16;6.75;;;3.10;;
34571;SDS011;20808;48.974;8.452;2023-02-26T01:13:33;7.18;;;3.10;;
34571;SDS011;20808;48.974;8.452;2023-02-26T01:13:49;5.82;;;2.95;;
34571;SDS011;20808;48.974;8.452;2023-02-26T01:14:05;5.50;;;2.95;;
34571;SDS011;20808;48.974;8.452;2023-02-26T01:14:23;5.07;;;2.90;;
34571;SDS011;20808;48.974;8.452;2023-02-26T01:14:39;5.20;;;3.00;;
34571;SDS011;20808;48.974;8.452;2023-02-26T01:14:55;5.32;;;3.30;;
34571;SDS011;20808;48.974;8.452;2023-02-26T01:15:12;5.55;;;3.03;;
34571;SDS011;20808;48.974;8.452;2023-02-26T01:15:30;6.18;;;3.00;;
34571;SDS011;20808;48.974;8.452;2023-02-26T01:15:46;5.60;;;2.97;;
34571;SDS011;20808;48.974;8.452;2023-02-26T01:16:08;5.05;;;2.72;;
34571;SDS011;20808;48.974;8.452;2023-02-26T01:16:29;7.05;;;3.10;;
34571;SDS011;20808;48.974;8.452;2023-02-26T01:16:49;6.95;;;3.10;;
34571;SDS011;20808;48.974;8.452;2023-02-26T01:17:10;6.65;;;3.10;;
34571;SDS011;20808;48.974;8.452;2023-02-26T01:17:32;3.70;;;2.72;;
34571;SDS011;20808;48.974;8.452;2023-02-26T01:17:55;4.38;;;2.80;;
34571;SDS011;20808;48.974;8.452;2023-02-26T01:18:18;5.50;;;3.00;;
34571;SDS011;20808;48.974;8.452;2023-02-26T01:18:40;5.30;;;2.80;;
34571;SDS011;20808;48.974;8.452;2023-02-26T01:19:02;5.72;;;2.80;;
34571;SDS011;20808;48.974;8.452;2023-02-26T01:19:28;4.82;;;2.72;;
34571;SDS011;20808;48.974;8.452;2023-02-26T01:19:50;5.10;;;3.00;;
34571;SDS011;20808;48.974;8.452;2023-02-26T01:20:10;4.30;;;2.90;;
34571;SDS011;20808;48.974;8.452;2023-02-26T01:20:33;4.32;;;2.90;;
34571;SDS011;20808;48.974;8.452;2023-02-26T01:20:56;4.00;;;2.70;;
34571;SDS011;20808;48.974;8.452;2023-02-26T01:21:18;4.63;;;2.83;;
34571;SDS011;20808;48.974;8.452;2023-02-26T01:21:44;5.15;;;2.90;;
34571;SDS011;20808;48.974;8.452;2023-02-26T01:22:05;4.60;;;3.00;;
34571;SDS011;20808;48.974;8.452;2023-02-26T01:22:26;5.00;;;3.00;;
34571;SDS011;20808;48.974;8.452;2023-02-26T01:22:49;5.70;;;3.10;;
34571;SDS011;20808;48.974;8.452;2023-02-26T01:23:08;6.70;;;3.20;;
34571;SDS011;20808;48.974;8.452;2023-02-26T01:23:29;7.05;;;3.20;;
34571;SDS011;20808;48.974;8.452;2023-02-26T01:23:48;5.78;;;3.20;;
34571;SDS011;20808;48.974;8.452;2023-02-26T01:24:07;5.60;;;3.20;;
34571;SDS011;20808;48.974;8.452;2023-02-26T01:24:27;4.95;;;3.20;;
34571;SDS011;20808;48.974;8.452;2023-02-26T01:24:45;4.78;;;3.10;;
34571;SDS011;20808;48.974;8.452;2023-02-26T01:25:04;4.45;;;3.10;;
34571;SDS011;20808;48.974;8.452;2023-02-26T01:25:23;4.43;;;3.05;;
34571;SDS011;20808;48.974;8.452;2023-02-26T01:25:46;4.22;;;2.95;;
34571;SDS011;20808;48.974;8.452;2023-02-26T01:26:05;3.92;;;2.90;;
34571;SDS011;20808;48.974;8.452;2023-02-26T01:26:26;4.28;;;2.92;;
34571;SDS011;20808;48.974;8.452;2023-02-26T01:26:43;5.63;;;3.30;;
34571;SDS011;20808;48.974;8.452;2023-02-26T01:26:59;6.38;;;3.38;;
34571;SDS011;20808;48.974;8.452;2023-02-26T01:27:16;6.50;;;3.45;;
34571;SDS011;20808;48.974;8.452;2023-02-26T01:27:32;5.35;;;3.20;;
34571;SDS011;20808;48.974;8.452;2023-02-26T01:27:48;5.30;;;3.10;;
34571;SDS011;20808;48.974;8.452;2023-02-26T01:28:05;4.40;;;2.90;;
34571;SDS011;20808;48.974;8.452;2023-02-26T01:28:21;4.60;;;2.88;;
34571;SDS011;20808;48.974;8.452;2023-02-26T01:28:38;5.20;;;3.00;;
34571;SDS011;20808;48.974;8.452;2023-02-26T01:28:55;5.75;;;3.20;;
34571;SDS011;20808;48.974;8.452;2023-02-26T01:29:11;6.15;;;3.30;;
34571;SDS011;20808;48.974;8.452;2023-02-26T01:29:27;6.00;;;3.20;;
34571;SDS011;20808;48.974;8.452;2023-02-26T01:29:43;5.68;;;3.10;;
34571;SDS011;20808;48.974;8.452;2023-02-26T01:30:00;5.18;;;3.05;;
34571;SDS011;20808;48.974;8.452;2023-02-26T01:30:18;4.80;;;3.13;;
34571;SDS011;20808;48.974;8.452;2023-02-26T01:30:36;4.53;;;3.10;;
34571;SDS011;20808;48.974;8.452;2023-02-26T01:30:53;4.93;;;3.28;;
34571;SDS011;20808;48.974;8.452;2023-02-26T01:31:17;6.13;;;3.20;;
34571;SDS011;20808;48.974;8.452;2023-02-26T01:31:47;6.22;;;3.20;;
34571;SDS011;20808;48.974;8.452;2023-02-26T01:32:10;5.45;;;3.20;;
34571;SDS011;20808;48.974;8.452;2023-02-26T01:32:34;4.95;;;3.10;;
34571;SDS011;20808;48.974;8.452;2023-02-26T01:32:59;5.00;;;3.10;;
34571;SDS011;20808;48.974;8.452;2023-02-26T01:33:23;4.78;;;3.10;;
34571;SDS011;20808;48.974;8.452;2023-02-26T01:33:43;4.53;;;3.20;;
34571;SDS011;20808;48.974;8.452;2023-02-26T01:34:02;4.68;;;3.10;;
34571;SDS011;20808;48.974;8.452;2023-02-26T01:34:25;4.45;;;3.08;;
34571;SDS011;20808;48.974;8.452;2023-02-26T01:34:51;5.15;;;3.28;;
34571;SDS011;20808;48.974;8.452;2023-02-26T01:35:14;5.35;;;3.33;;
34571;SDS011;20808;48.974;8.452;2023-02-26T01:35:39;6.30;;;3.40;;
34571;SDS011;20808;48.974;8.452;2023-02-26T01:35:59;6.40;;;3.60;;
34571;SDS011;20808;48.974;8.452;2023-02-26T01:36:22;5.93;;;3.30;;
34571;SDS011;20808;48.974;8.452;2023-02-26T01:36:42;5.53;;;3.20;;
34571;SDS011;20808;48.974;8.452;2023-02-26T01:37:05;6.20;;;3.05;;
34571;SDS011;20808;48.974;8.452;2023-02-26T01:37:31;5.25;;;3.03;;
34571;SDS011;20808;48.974;8.452;2023-02-26T01:37:52;5.10;;;2.92;;
34571;SDS011;20808;48.974;8.452;2023-02-26T01:38:17;5.05;;;3.10;;
34571;SDS011;20808;48.974;8.452;2023-02-26T01:38:40;6.63;;;3.20;;
34571;SDS011;20808;48.974;8.452;2023-02-26T01:39:05;6.70;;;3.30;;
34571;SDS011;20808;48.974;8.452;2023-02-26T01:39:27;8.20;;;3.40;;
34571;SDS011;20808;48.974;8.452;2023-02-26T01:39:59;9.35;;;3.50;;
34571;SDS011;20808;48.974;8.452;2023-02-26T01:40:37;7.38;;;3.40;;
34571;SDS011;20808;48.974;8.452;2023-02-26T01:41:21;6.25;;;3.47;;
34571;SDS011;20808;48.974;8.452;2023-02-26T01:41:44;6.18;;;3.60;;
34571;SDS011;20808;48.974;8.452;2023-02-26T01:42:05;5.50;;;3.60;;
34571;SDS011;20808;48.974;8.452;2023-02-26T01:42:29;6.32;;;3.95;;
34571;SDS011;20808;48.974;8.452;2023-02-26T01:42:50;8.02;;;4.55;;
34571;SDS011;20808;48.974;8.452;2023-02-26T01:43:10;9.68;;;4.95;;
34571;SDS011;20808;48.974;8.452;2023-02-26T01:43:31;8.88;;;4.82;;
34571;SDS011;20808;48.974;8.452;2023-02-26T01:43:53;8.07;;;4.60;;
34571;SDS011;20808;48.974;8.452;2023-02-26T01:44:18;7.28;;;4.40;;
34571;SDS011;20808;48.974;8.452;2023-02-26T01:44:43;6.55;;;4.10;;
34571;SDS011;20808;48.974;8.452;2023-02-26T01:45:10;8.63;;;4.05;;
34571;SDS011;20808;48.974;8.452;2023-02-26T01:45:31;9.07;;;4.10;;
34571;SDS011;20808;48.974;8.452;2023-02-26T01:45:54;9.23;;;3.90;;
34571;SDS011;20808;48.974;8.452;2023-02-26T01:46:15;8.23;;;4.10;;
34571;SDS011;20808;48.974;8.452;2023-02-26T01:46:38;9.43;;;4.00;;
34571;SDS011;20808;48.974;8.452;2023-02-26T01:47:20;10.90;;;3.88;;
34571;SDS011;20808;48.974;8.452;2023-02-26T01:47:44;8.70;;;3.67;;
34571;SDS011;20808;48.974;8.452;2023-02-26T01:48:09;6.80;;;3.42;;
34571;SDS011;20808;48.974;8.452;2023-02-26T01:48:36;5.03;;;3.50;;
34571;SDS011;20808;48.974;8.452;2023-02-26T01:48:57;4.70;;;3.33;;
34571;SDS011;20808;48.974;8.452;2023-02-26T01:49:15;4.82;;;3.50;;
34571;SDS011;20808;48.974;8.452;2023-02-26T01:49:32;4.80;;;3.40;;
34571;SDS011;20808;48.974;8.452;2023-02-26T01:49:49;4.57;;;3.20;;
34571;SDS011;20808;48.974;8.452;2023-02-26T01:50:08;4.72;;;3.35;;
34571;SDS011;20808;48.974;8.452;2023-02-26T01:50:27;5.00;;;3.35;;
34571;SDS011;20808;48.974;8.452;2023-02-26T01:50:46;5.18;;;3.30;;
34571;SDS011;20808;48.974;8.452;2023-02-26T01:51:01;5.50;;;3.20;;
34571;SDS011;20808;48.974;8.452;2023-02-26T01:51:42;5.90;;;3.10;;
34571;SDS011;20808;48.974;8.452;2023-02-26T01:51:57;6.00;;;3.30;;
34571;SDS011;20808;48.974;8.452;2023-02-26T01:53:20;5.55;;;3.20;;
34571;SDS011;20808;48.974;8.452;2023-02-26T01:53:38;5.40;;;3.13;;
34571;SDS011;20808;48.974;8.452;2023-02-26T01:53:54;6.05;;;3.20;;
34571;SDS011;20808;48.974;8.452;2023-02-26T01:54:10;5.50;;;3.10;;
34571;SDS011;20808;48.974;8.452;2023-02-26T01:54:28;4.90;;;3.00;;
34571;SDS011;20808;48.974;8.452;2023-02-26T01:54:45;4.80;;;3.00;;
34571;SDS011;20808;48.974;8.452;2023-02-26T01:55:00;4.30;;;2.80;;
34571;SDS011;20808;48.974;8.452;2023-02-26T01:55:17;4.40;;;2.88;;
34571;SDS011;20808;48.974;8.452;2023-02-26T01:55:35;4.95;;;3.08;;
34571;SDS011;20808;48.974;8.452;2023-02-26T01:55:54;5.38;;;3.20;;
34571;SDS011;20808;48.974;8.452;2023-02-26T01:56:12;5.38;;;3.20;;
34571;SDS011;20808;48.974;8.452;2023-02-26T01:56:31;6.03;;;3.10;;
34571;SDS011;20808;48.974;8.452;2023-02-26T01:56:48;5.93;;;3.00;;
34571;SDS011;20808;48.974;8.452;2023-02-26T01:57:08;6.88;;;3.10;;